Nakhchivan — 9HHK8 — position and weather

sailwx.info

Track history (hours):
 
Tides and Currents Weather Stations Pressure Air Temp Water Temp Dewpoint Dewpoint Depression Visibility Wind Speed Wind Dir Waves Ship Positions

Nakhchivan

Last reported at 2017-Dec-15 15:40 UTC. Time now 2017-Dec-18 14:30 UTC.
Position N 45°31' E 036°45'.

Length 139 m; draft 3.7 m.

Type: Cargo ship. MMSI: 215983000.

Date/timePositionNaut miles runAvg speedWind from/ knotsBaromVisibWave heightAir tempDewpointWater temp
2017-Dec-15 15:40N 45°31' E 036°45'2 9.2
2017-Dec-15 15:29N 45°30' E 036°43'4 9.3
2017-Dec-15 15:00N 45°25' E 036°41'4 8.5
2017-Dec-15 14:30N 45°21' E 036°39'4 8.1
2017-Dec-15 14:00N 45°20' E 036°34'5 7.5
2017-Dec-15 13:22N 45°17' E 036°29'2 6.1
2017-Dec-15 12:59N 45°14' E 036°28'4 6.9
2017-Dec-15 12:23N 45°11' E 036°31'0 0.5
2017-Dec-15 11:46N 45°11' E 036°32'0 0.0
2017-Dec-15 11:30N 45°11' E 036°32'0 0.0
2017-Dec-15 10:41N 45°11' E 036°32'0 0.0
2017-Dec-15 10:25N 45°11' E 036°32'0 0.0
2017-Dec-15 09:58N 45°11' E 036°32'0 0.0
2017-Dec-15 09:29N 45°11' E 036°32'0 0.0
2017-Dec-15 08:05N 45°11' E 036°32'0 0.1
2017-Dec-15 07:59N 45°11' E 036°32'0 0.0
2017-Dec-15 06:13N 45°11' E 036°32'0 0.0
2017-Dec-15 05:35N 45°11' E 036°32'0 0.0
2017-Dec-15 05:11N 45°11' E 036°32'0 0.0
2017-Dec-15 04:56N 45°11' E 036°32'  
2017-Dec-13 00:11N 40°59' E 028°59'  
2017-Dec-10 04:20N 37°54' E 024°33'4 9.2
2017-Dec-10 03:55N 37°51' E 024°30'8 9.0
2017-Dec-10 03:01N 37°46' E 024°22'0 9.9
2017-Dec-10 03:00N 37°46' E 024°22'5 9.4
2017-Dec-10 02:30N 37°42' E 024°18'5 9.3
2017-Dec-10 01:59N 37°39' E 024°14'4 9.2
2017-Dec-10 01:30N 37°35' E 024°11'5 9.2
2017-Dec-10 01:00N 37°31' E 024°07'5 9.2
2017-Dec-10 00:29N 37°27' E 024°04'4 8.9
2017-Dec-10 00:00N 37°24' E 024°01'8 9.0
2017-Dec-09 23:06N 37°17' E 023°56'8 9.2
2017-Dec-09 22:14N 37°10' E 023°51'2 9.6
2017-Dec-09 22:00N 37°08' E 023°49'450 9.1
2017-Dec-07 20:29N 36°45' E 014°27'5 9.5
2017-Dec-07 20:00N 36°47' E 014°22'510.0
2017-Dec-07 19:30N 36°49' E 014°17'510.6
2017-Dec-07 19:00N 36°52' E 014°11'510.0
2017-Dec-07 18:30N 36°54' E 014°06'510.6
2017-Dec-07 18:00N 36°56' E 013°60'610.7
2017-Dec-07 17:29N 36°59' E 013°53'  
Track history (hours):
 
Tides and Currents Weather Stations Pressure Air Temp Water Temp Dewpoint Dewpoint Depression Visibility Wind Speed Wind Dir Waves Ship Positions

Nakhchivan

Last reported at 2017-Dec-15 15:40 UTC. Time now 2017-Dec-18 14:30 UTC.
Position N 45°31' E 036°45'.

Length 139 m; draft 3.7 m.

Type: Cargo ship. MMSI: 215983000.

Date/timePositionNaut miles runAvg speedWind from/ knotsBaromVisibWave heightAir tempDewpointWater temp
2017-Dec-15 15:40N 45°31' E 036°45'2 9.2
2017-Dec-15 15:29N 45°30' E 036°43'4 9.3
2017-Dec-15 15:00N 45°25' E 036°41'4 8.5
2017-Dec-15 14:30N 45°21' E 036°39'4 8.1
2017-Dec-15 14:00N 45°20' E 036°34'5 7.5
2017-Dec-15 13:22N 45°17' E 036°29'2 6.1
2017-Dec-15 12:59N 45°14' E 036°28'4 6.9
2017-Dec-15 12:23N 45°11' E 036°31'0 0.5
2017-Dec-15 11:46N 45°11' E 036°32'0 0.0
2017-Dec-15 11:30N 45°11' E 036°32'0 0.0
2017-Dec-15 10:41N 45°11' E 036°32'0 0.0
2017-Dec-15 10:25N 45°11' E 036°32'0 0.0
2017-Dec-15 09:58N 45°11' E 036°32'0 0.0
2017-Dec-15 09:29N 45°11' E 036°32'0 0.0
2017-Dec-15 08:05N 45°11' E 036°32'0 0.1
2017-Dec-15 07:59N 45°11' E 036°32'0 0.0
2017-Dec-15 06:13N 45°11' E 036°32'0 0.0
2017-Dec-15 05:35N 45°11' E 036°32'0 0.0
2017-Dec-15 05:11N 45°11' E 036°32'0 0.0
2017-Dec-15 04:56N 45°11' E 036°32'  
2017-Dec-13 00:11N 40°59' E 028°59'  
2017-Dec-10 04:20N 37°54' E 024°33'4 9.2
2017-Dec-10 03:55N 37°51' E 024°30'8 9.0
2017-Dec-10 03:01N 37°46' E 024°22'0 9.9
2017-Dec-10 03:00N 37°46' E 024°22'5 9.4
2017-Dec-10 02:30N 37°42' E 024°18'5 9.3
2017-Dec-10 01:59N 37°39' E 024°14'4 9.2
2017-Dec-10 01:30N 37°35' E 024°11'5 9.2
2017-Dec-10 01:00N 37°31' E 024°07'5 9.2
2017-Dec-10 00:29N 37°27' E 024°04'4 8.9
2017-Dec-10 00:00N 37°24' E 024°01'8 9.0
2017-Dec-09 23:06N 37°17' E 023°56'8 9.2
2017-Dec-09 22:14N 37°10' E 023°51'2 9.6
2017-Dec-09 22:00N 37°08' E 023°49'450 9.1
2017-Dec-07 20:29N 36°45' E 014°27'5 9.5
2017-Dec-07 20:00N 36°47' E 014°22'510.0
2017-Dec-07 19:30N 36°49' E 014°17'510.6
2017-Dec-07 19:00N 36°52' E 014°11'510.0
2017-Dec-07 18:30N 36°54' E 014°06'510.6
2017-Dec-07 18:00N 36°56' E 013°60'610.7
2017-Dec-07 17:29N 36°59' E 013°53'  

Dump ship's entire track history